createdAt,value
2017-07-03T00:00:42.346Z,85.21
2017-07-03T00:01:42.382Z,85.3
2017-07-03T00:02:42.466Z,85.21
2017-07-03T00:03:42.459Z,85.39
2017-07-03T00:04:42.491Z,85.68
2017-07-03T00:05:42.536Z,85.39
2017-07-03T00:06:42.572Z,85.39
2017-07-03T00:07:42.616Z,85.21
2017-07-03T00:08:42.647Z,85.88
2017-07-03T00:09:42.693Z,86.07
2017-07-03T00:10:42.733Z,85.39
2017-07-03T00:11:42.767Z,85.21
2017-07-03T00:12:42.803Z,85.68
2017-07-03T00:13:42.846Z,85.39
2017-07-03T00:14:42.881Z,85.58
2017-07-03T00:15:42.920Z,85.49
2017-07-03T00:16:42.959Z,85.49
2017-07-03T00:17:43.000Z,85.11
2017-07-03T00:18:43.037Z,85.21
2017-07-03T00:19:43.071Z,85.01
2017-07-03T00:20:43.109Z,85.3
2017-07-03T00:21:43.159Z,85.21
2017-07-03T00:22:43.188Z,85.21
2017-07-03T00:23:43.230Z,85.21
2017-07-03T00:24:43.264Z,85.01
2017-07-03T00:25:43.302Z,85.3
2017-07-03T00:26:43.339Z,85.3
2017-07-03T00:27:43.383Z,84.72
2017-07-03T00:28:43.419Z,84.91
2017-07-03T00:29:43.461Z,84.82
2017-07-03T00:30:43.501Z,84.82
2017-07-03T00:31:43.541Z,85.01
2017-07-03T00:32:43.574Z,84.82
2017-07-03T00:33:43.622Z,84.82
2017-07-03T00:34:43.655Z,84.82
2017-07-03T00:35:43.695Z,84.91
2017-07-03T00:36:43.726Z,84.91
2017-07-03T00:37:43.766Z,84.82
2017-07-03T00:38:43.808Z,85.3
2017-07-03T00:39:43.843Z,84.91
2017-07-03T00:40:44.192Z,85.21
2017-07-03T00:41:44.238Z,84.63
2017-07-03T00:42:43.965Z,84.53
2017-07-03T00:43:44.004Z,84.82
2017-07-03T00:44:44.038Z,84.91
2017-07-03T00:45:44.083Z,84.82
2017-07-03T00:46:44.115Z,84.91
2017-07-03T00:47:44.157Z,85.01
2017-07-03T00:48:44.198Z,84.05
2017-07-03T00:49:44.540Z,85.01
2017-07-03T00:50:44.273Z,84.05
2017-07-03T00:51:44.313Z,84.34
2017-07-03T00:52:44.347Z,84.25
2017-07-03T00:53:44.387Z,84.63
2017-07-03T00:54:44.431Z,84.53
2017-07-03T00:55:44.469Z,84.34
2017-07-03T00:56:44.507Z,84.44
2017-07-03T00:57:44.847Z,84.05
2017-07-03T00:58:44.582Z,84.15
2017-07-03T00:59:44.622Z,84.53
2017-07-03T01:00:44.662Z,84.53
2017-07-03T01:01:44.699Z,83.67
2017-07-03T01:02:44.738Z,84.15
2017-07-03T01:03:44.782Z,83.76
2017-07-03T01:04:44.869Z,84.15
2017-07-03T01:05:44.848Z,83.95
2017-07-03T01:06:44.895Z,83.95
2017-07-03T01:07:44.927Z,84.25
2017-07-03T01:08:44.973Z,83.29
2017-07-03T01:09:45.316Z,83.63
2017-07-03T01:10:45.045Z,83.58
2017-07-03T01:11:45.085Z,83.67
2017-07-03T01:12:45.126Z,83.72
2017-07-03T01:13:45.158Z,83.63
2017-07-03T01:14:45.201Z,83.34
2017-07-03T01:15:45.236Z,83.63
2017-07-03T01:16:45.278Z,83.34
2017-07-03T01:17:45.619Z,82.76
2017-07-03T01:18:45.352Z,83.44
2017-07-03T01:19:45.395Z,83.15
2017-07-03T01:20:45.429Z,83.05
2017-07-03T01:21:45.476Z,82.96
2017-07-03T01:22:45.504Z,83.15
2017-07-03T01:23:45.546Z,83.15
2017-07-03T01:24:45.891Z,83.34
2017-07-03T01:25:45.619Z,83.34
2017-07-03T01:26:45.968Z,82.67
2017-07-03T01:27:46.014Z,82.86
2017-07-03T01:28:45.741Z,82.48
2017-07-03T01:29:45.779Z,82.57
2017-07-03T01:30:45.834Z,82.67
2017-07-03T01:31:45.855Z,82.38
2017-07-03T01:32:45.897Z,82.67
2017-07-03T01:33:45.931Z,82.29
2017-07-03T01:34:46.284Z,82.29
2017-07-03T01:35:46.009Z,82.48
2017-07-03T01:36:46.088Z,82.48
2017-07-03T01:37:46.086Z,82.29
2017-07-03T01:38:46.428Z,82
2017-07-03T01:39:46.159Z,82.19
2017-07-03T01:40:46.506Z,81.43
2017-07-03T01:41:46.238Z,81.33
2017-07-03T01:42:46.324Z,81.71
2017-07-03T01:43:46.315Z,81.62
2017-07-03T01:44:46.357Z,81.62
2017-07-03T01:45:46.391Z,81.23
2017-07-03T01:46:46.436Z,81.23
2017-07-03T01:47:46.470Z,81.33
2017-07-03T01:48:46.822Z,80.56
2017-07-03T01:49:46.546Z,81.04
2017-07-03T01:50:46.583Z,81.23
2017-07-03T01:51:46.625Z,80.56
2017-07-03T01:52:46.977Z,80.47
2017-07-03T01:53:46.704Z,80.76
2017-07-03T01:54:46.743Z,80.37
2017-07-03T01:55:46.779Z,80.37
2017-07-03T01:56:46.817Z,80.27
2017-07-03T01:57:46.857Z,80.27
2017-07-03T01:58:46.897Z,80.56
2017-07-03T01:59:47.243Z,80.37
2017-07-03T02:00:46.973Z,80.66
2017-07-03T02:01:47.014Z,79.99
2017-07-03T02:02:47.049Z,79.89
2017-07-03T02:03:47.089Z,79.6
2017-07-03T02:04:47.438Z,80.08
2017-07-03T02:05:47.162Z,79.89
2017-07-03T02:06:47.204Z,79.99
2017-07-03T02:07:47.241Z,79.51
2017-07-03T02:08:47.587Z,79.7
2017-07-03T02:09:47.319Z,79.7
2017-07-03T02:10:47.665Z,79.51
2017-07-03T02:11:47.395Z,79.89
2017-07-03T02:12:47.442Z,79.32
2017-07-03T02:13:47.475Z,79.41
2017-07-03T02:14:47.813Z,79.57
2017-07-03T02:15:47.865Z,79.41
2017-07-03T02:16:47.587Z,79.28
2017-07-03T02:17:47.628Z,79.57
2017-07-03T02:18:47.666Z,79.57
2017-07-03T02:19:47.703Z,79.13
2017-07-03T02:20:47.741Z,78.74
2017-07-03T02:21:47.785Z,79.75
2017-07-03T02:22:47.828Z,79.8
2017-07-03T02:23:47.860Z,79.08
2017-07-03T02:24:47.889Z,78.84
2017-07-03T02:25:47.933Z,79.22
2017-07-03T02:26:47.972Z,79.47
2017-07-03T02:27:48.010Z,79.28
2017-07-03T02:28:48.046Z,79.47
2017-07-03T02:29:48.087Z,78.89
2017-07-03T02:30:48.123Z,79.57
2017-07-03T02:31:48.163Z,79.37
2017-07-03T02:32:48.194Z,78.93
2017-07-03T02:33:48.241Z,79.32
2017-07-03T02:34:48.593Z,78.64
2017-07-03T02:35:48.312Z,79.22
2017-07-03T02:36:48.354Z,79.18
2017-07-03T02:37:48.395Z,78.99
2017-07-03T02:38:48.426Z,78.84
2017-07-03T02:39:48.486Z,79.47
2017-07-03T02:40:48.508Z,78.8
2017-07-03T02:41:48.546Z,78.99
2017-07-03T02:42:48.581Z,79.08
2017-07-03T02:43:48.625Z,79.18
2017-07-03T02:44:48.662Z,79.28
2017-07-03T02:45:48.702Z,79.13
2017-07-03T02:46:48.739Z,79.08
2017-07-03T02:47:48.779Z,78.89
2017-07-03T02:48:48.812Z,79.18
2017-07-03T02:49:48.854Z,79.08
2017-07-03T02:50:48.934Z,78.7
2017-07-03T02:51:48.926Z,78.51
2017-07-03T02:52:48.971Z,78.51
2017-07-03T02:53:49.002Z,78.61
2017-07-03T02:54:49.045Z,78.89
2017-07-03T02:55:49.083Z,78.7
2017-07-03T02:56:49.430Z,78.8
2017-07-03T02:57:49.155Z,78.89
2017-07-03T02:58:49.198Z,78.89
2017-07-03T02:59:49.231Z,78.7
2017-07-03T03:00:49.276Z,78.89
2017-07-03T03:01:49.314Z,78.89
2017-07-03T03:02:49.346Z,78.51
2017-07-03T03:03:49.391Z,78.8
2017-07-03T03:04:49.427Z,78.51
2017-07-03T03:05:49.461Z,78.7
2017-07-03T03:06:49.504Z,78.7
2017-07-03T03:07:49.544Z,78.7
2017-07-03T03:08:49.885Z,78.51
2017-07-03T03:09:49.613Z,78.7
2017-07-03T03:10:49.654Z,78.42
2017-07-03T03:11:49.691Z,78.99
2017-07-03T03:12:49.729Z,78.93
2017-07-03T03:13:49.775Z,78.89
2017-07-03T03:14:49.805Z,78.7
2017-07-03T03:15:49.848Z,79.18
2017-07-03T03:16:49.888Z,78.84
2017-07-03T03:17:50.228Z,79.03
2017-07-03T03:18:49.963Z,78.89
2017-07-03T03:19:49.997Z,78.99
2017-07-03T03:20:50.036Z,78.99
2017-07-03T03:21:50.079Z,78.99
2017-07-03T03:22:50.111Z,78.89
2017-07-03T03:23:50.155Z,78.99
2017-07-03T03:24:50.195Z,78.99
2017-07-03T03:25:50.232Z,78.99
2017-07-03T03:26:50.271Z,78.74
2017-07-03T03:27:50.304Z,79.22
2017-07-03T03:28:50.348Z,79.18
2017-07-03T03:29:50.385Z,78.89
2017-07-03T03:30:50.424Z,78.89
2017-07-03T03:31:50.455Z,78.89
2017-07-03T03:32:50.499Z,78.93
2017-07-03T03:33:50.539Z,78.99
2017-07-03T03:34:50.573Z,79.03
2017-07-03T03:35:50.614Z,78.74
2017-07-03T03:36:50.658Z,78.7
2017-07-03T03:37:50.688Z,78.8
2017-07-03T03:38:50.728Z,78.89
2017-07-03T03:39:50.764Z,78.99
2017-07-03T03:40:50.807Z,78.61
2017-07-03T03:41:50.844Z,78.45
2017-07-03T03:42:50.884Z,78.51
2017-07-03T03:43:50.921Z,78.55
2017-07-03T03:44:50.960Z,78.7
2017-07-03T03:45:50.995Z,78.7
2017-07-03T03:46:51.040Z,78.8
2017-07-03T03:47:51.070Z,78.22
2017-07-03T03:48:51.113Z,78.51
2017-07-03T03:49:51.150Z,78.51
2017-07-03T03:50:51.185Z,78.61
2017-07-03T03:51:51.228Z,78.93
2017-07-03T03:52:51.268Z,78.51
2017-07-03T03:53:51.300Z,78.7
2017-07-03T03:54:51.351Z,78.89
2017-07-03T03:55:51.380Z,78.51
2017-07-03T03:56:51.419Z,78.51
2017-07-03T03:57:51.461Z,78.84
2017-07-03T03:58:51.496Z,78.61
2017-07-03T03:59:51.542Z,79.03
2017-07-03T04:00:51.574Z,78.74
2017-07-03T04:01:51.608Z,78.84
2017-07-03T04:02:51.645Z,78.61
2017-07-03T04:03:51.687Z,78.36
2017-07-03T04:04:51.722Z,78.45
2017-07-03T04:05:51.777Z,78.74
2017-07-03T04:06:51.806Z,78.27
2017-07-03T04:07:52.150Z,78.27
2017-07-03T04:08:51.881Z,78.55
2017-07-03T04:09:51.916Z,78.17
2017-07-03T04:10:51.955Z,78.17
2017-07-03T04:11:51.990Z,78.36
2017-07-03T04:12:52.031Z,78.07
2017-07-03T04:13:52.077Z,78.07
2017-07-03T04:14:52.111Z,77.97
2017-07-03T04:15:52.458Z,77.97
2017-07-03T04:16:52.410Z,77.88
2017-07-03T04:17:52.228Z,77.78
2017-07-03T04:18:52.264Z,78.07
2017-07-03T04:19:52.672Z,77.97
2017-07-03T04:20:52.343Z,77.88
2017-07-03T04:21:52.376Z,77.69
2017-07-03T04:22:52.421Z,77.69
2017-07-03T04:23:52.455Z,78.07
2017-07-03T04:24:52.499Z,78.17
2017-07-03T04:25:52.534Z,77.97
2017-07-03T04:26:52.571Z,77.31
2017-07-03T04:27:52.612Z,77.69
2017-07-03T04:28:52.651Z,77.5
2017-07-03T04:29:52.687Z,77.97
2017-07-03T04:30:52.724Z,78.11
2017-07-03T04:31:52.762Z,77.82
2017-07-03T04:32:52.801Z,77.4
2017-07-03T04:33:52.841Z,77.31
2017-07-03T04:34:53.197Z,77.25
2017-07-03T04:35:52.923Z,77.25
2017-07-03T04:36:52.961Z,76.77
2017-07-03T04:37:53.002Z,76.86
2017-07-03T04:38:53.036Z,76.86
2017-07-03T04:39:53.076Z,77.15
2017-07-03T04:40:53.122Z,76.48
2017-07-03T04:41:53.155Z,77.06
2017-07-03T04:42:53.194Z,78.02
2017-07-03T04:43:53.231Z,78.34
2017-07-03T04:44:53.265Z,77.76
2017-07-03T04:45:53.306Z,77.09
2017-07-03T04:46:53.349Z,76.84
2017-07-03T04:47:53.387Z,76.65
2017-07-03T04:48:53.423Z,75.82
2017-07-03T04:49:53.467Z,75.82
2017-07-03T04:50:53.505Z,74.9
2017-07-03T04:51:53.550Z,74.55
2017-07-03T04:52:53.584Z,75.04
2017-07-03T04:53:53.621Z,75.94
2017-07-03T04:54:53.662Z,74.34
2017-07-03T04:55:53.698Z,72.65
2017-07-03T04:56:53.742Z,70.86
2017-07-03T04:57:53.780Z,70.37
2017-07-03T04:58:53.817Z,69.79
2017-07-03T04:59:53.864Z,69.41
2017-07-03T05:00:53.906Z,68.93
2017-07-03T05:01:53.940Z,68.84
2017-07-03T05:02:53.983Z,68.41
2017-07-03T05:03:54.020Z,68.32
2017-07-03T05:04:54.069Z,68.22
2017-07-03T05:05:54.102Z,68.03
2017-07-03T05:06:54.147Z,68.22
2017-07-03T05:07:54.189Z,67.9
2017-07-03T05:08:54.227Z,67.8
2017-07-03T05:09:54.265Z,67.51
2017-07-03T05:10:54.308Z,67.9
2017-07-03T05:11:54.351Z,67.13
2017-07-03T05:12:54.699Z,66.84
2017-07-03T05:13:54.424Z,66.55
2017-07-03T05:14:54.469Z,65.97
2017-07-03T05:15:54.514Z,66.55
2017-07-03T05:16:54.547Z,66.36
2017-07-03T05:17:54.593Z,66.46
2017-07-03T05:18:54.628Z,66.78
2017-07-03T05:19:54.671Z,65.63
2017-07-03T05:20:54.712Z,65.43
2017-07-03T05:21:54.751Z,65.33
2017-07-03T05:22:54.796Z,64.56
2017-07-03T05:23:54.831Z,63.89
2017-07-03T05:24:54.874Z,64.37
2017-07-03T05:25:54.916Z,63.41
2017-07-03T05:26:54.956Z,63.7
2017-07-03T05:27:55.303Z,64.08
2017-07-03T05:28:55.039Z,64.28
2017-07-03T05:29:55.075Z,64.18
2017-07-03T05:30:55.122Z,63.7
2017-07-03T05:31:55.155Z,63.7
2017-07-03T05:32:55.201Z,63.82
2017-07-03T05:33:55.241Z,63.44
2017-07-03T05:34:55.275Z,62.6
2017-07-03T05:35:55.333Z,61.9
2017-07-03T05:36:55.360Z,62.38
2017-07-03T05:37:55.398Z,62.22
2017-07-03T05:38:55.440Z,62.29
2017-07-03T05:39:55.487Z,62.19
2017-07-03T05:40:55.592Z,62
2017-07-03T05:41:55.607Z,62
2017-07-03T05:42:55.604Z,61.71
2017-07-03T05:43:55.681Z,61.71
2017-07-03T05:44:55.688Z,62.12
2017-07-03T05:45:55.730Z,63.57
2017-07-03T05:46:55.768Z,64.47
2017-07-03T05:47:55.819Z,64.08
2017-07-03T05:48:55.857Z,62.4
2017-07-03T05:49:55.892Z,59.98
2017-07-03T05:50:55.941Z,58.14
2017-07-03T05:51:55.990Z,56.37
2017-07-03T05:52:56.029Z,54.52
2017-07-03T05:53:56.070Z,51.75
2017-07-03T05:54:56.122Z,50.41
2017-07-03T05:55:56.171Z,49.85
2017-07-03T05:56:56.207Z,48.8
2017-07-03T05:57:56.259Z,47.83
2017-07-03T05:58:56.303Z,47.25
2017-07-03T05:59:56.349Z,47.53
2017-07-03T06:00:56.397Z,46.88
2017-07-03T06:01:56.439Z,45.07
2017-07-03T06:02:56.491Z,44.21
2017-07-03T06:03:56.539Z,42.99
2017-07-03T06:04:56.588Z,41.36
2017-07-03T06:05:56.637Z,40.14
2017-07-03T06:06:56.681Z,38.7
2017-07-03T06:07:56.726Z,37.56
2017-07-03T06:08:56.776Z,36.21
2017-07-03T06:09:56.827Z,35.14
2017-07-03T06:10:56.879Z,34.2
2017-07-03T06:11:56.923Z,33.34
2017-07-03T06:12:57.289Z,32.26
2017-07-03T06:13:57.032Z,31.59
2017-07-03T06:14:57.393Z,30.82
2017-07-03T06:15:57.130Z,30.04
2017-07-03T06:16:57.187Z,29.27
2017-07-03T06:17:57.291Z,28.58
2017-07-03T06:18:57.281Z,27.7
2017-07-03T06:19:57.336Z,27.42
2017-07-03T06:20:57.388Z,25.96
2017-07-03T06:21:57.440Z,25.97
2017-07-03T06:22:57.489Z,25.49
2017-07-03T06:23:57.549Z,24.91
2017-07-03T06:24:57.600Z,23.93
2017-07-03T06:25:57.655Z,23.33
2017-07-03T06:26:57.704Z,23.24
2017-07-03T06:27:57.758Z,22.64
2017-07-03T06:28:58.121Z,22.25
2017-07-03T06:29:57.979Z,21.96
2017-07-03T06:30:57.921Z,21.77
2017-07-03T06:31:57.981Z,21.37
2017-07-03T06:32:58.035Z,20.59
2017-07-03T06:33:58.081Z,20.1
2017-07-03T06:34:58.239Z,19.52
2017-07-03T06:35:58.187Z,18.84
2017-07-03T06:36:58.246Z,18.63
2017-07-03T06:37:58.302Z,18.35
2017-07-03T06:38:58.355Z,18.15
2017-07-03T06:39:58.418Z,17.46
2017-07-03T06:40:58.468Z,16.97
2017-07-03T06:41:58.519Z,17.17
2017-07-03T06:42:58.575Z,16.28
2017-07-03T06:43:58.630Z,16.28
2017-07-03T06:44:58.690Z,15.49
2017-07-03T06:45:58.737Z,15
2017-07-03T06:46:58.803Z,15.3
2017-07-03T06:47:59.165Z,15.01
2017-07-03T06:48:58.911Z,14.7
2017-07-03T06:49:58.964Z,14.41
2017-07-03T06:50:59.023Z,14.22
2017-07-03T06:51:59.077Z,14.12
2017-07-03T06:52:59.135Z,14.22
2017-07-03T06:53:59.191Z,13.33
2017-07-03T06:54:59.257Z,12.84
2017-07-03T06:55:59.298Z,12.74
2017-07-03T06:56:59.359Z,12.64
2017-07-03T06:57:59.416Z,12.15
2017-07-03T06:58:59.470Z,12.74
2017-07-03T06:59:59.524Z,11.85
2017-07-03T07:00:59.580Z,12.15
2017-07-03T07:01:59.640Z,11.75
2017-07-03T07:02:59.696Z,12.25
2017-07-03T07:03:59.754Z,11.75
2017-07-03T07:04:59.814Z,11.76
2017-07-03T07:05:59.864Z,11.16
2017-07-03T07:06:59.924Z,11.26
2017-07-03T07:07:59.984Z,11.36
2017-07-03T07:09:00.041Z,11.16
2017-07-03T07:10:00.102Z,11.26
2017-07-03T07:11:00.154Z,10.96
2017-07-03T07:12:00.261Z,11.06
2017-07-03T07:13:00.275Z,10.96
2017-07-03T07:14:00.630Z,10.06
2017-07-03T07:15:00.690Z,10.56
2017-07-03T07:16:00.440Z,10.36
2017-07-03T07:17:00.497Z,10.27
2017-07-03T07:18:00.859Z,9.97
2017-07-03T07:19:00.610Z,9.77
2017-07-03T07:20:00.663Z,9.58
2017-07-03T07:21:00.723Z,9.58
2017-07-03T07:22:00.788Z,9.58
2017-07-03T07:23:00.839Z,9.28
2017-07-03T07:24:00.901Z,8.98
2017-07-03T07:25:00.954Z,9.19
2017-07-03T07:26:01.023Z,8.58
2017-07-03T07:27:01.074Z,8.78
2017-07-03T07:28:01.130Z,8.97
2017-07-03T07:29:01.191Z,8.77
2017-07-03T07:30:01.250Z,8.97
2017-07-03T07:31:01.318Z,8.47
2017-07-03T07:32:01.361Z,8.56
2017-07-03T07:33:01.424Z,8.26
2017-07-03T07:34:01.478Z,8.36
2017-07-03T07:35:01.538Z,8.57
2017-07-03T07:36:01.606Z,8.57
2017-07-03T07:37:01.659Z,8.47
2017-07-03T07:38:01.710Z,8.67
2017-07-03T07:39:01.772Z,8.76
2017-07-03T07:40:02.100Z,8.87
2017-07-03T07:41:02.002Z,8.87
2017-07-03T07:42:01.940Z,7.88
2017-07-03T07:43:02.309Z,8.18
2017-07-03T07:44:02.378Z,7.98
2017-07-03T07:45:02.132Z,8.07
2017-07-03T07:46:02.176Z,8.08
2017-07-03T07:47:02.238Z,8.07
2017-07-03T07:48:02.293Z,8.18
2017-07-03T07:49:02.359Z,7.68
2017-07-03T07:50:02.406Z,7.78
2017-07-03T07:51:02.466Z,7.98
2017-07-03T07:52:02.532Z,7.88
2017-07-03T07:53:02.589Z,7.68
2017-07-03T07:54:02.642Z,7.98
2017-07-03T07:55:02.705Z,7.59
2017-07-03T07:56:02.757Z,7.78
2017-07-03T07:57:02.823Z,7.98
2017-07-03T07:58:02.873Z,8.67
2017-07-03T07:59:02.936Z,8.57
2017-07-03T08:00:02.987Z,8.56
2017-07-03T08:01:03.044Z,9.05
2017-07-03T08:02:03.111Z,9.23
2017-07-03T08:03:03.159Z,9.72
2017-07-03T08:04:03.220Z,10.02
2017-07-03T08:05:03.272Z,9.92
2017-07-03T08:06:03.385Z,10.11
2017-07-03T08:07:03.386Z,9.91
2017-07-03T08:08:03.442Z,10.51
2017-07-03T08:09:03.496Z,10.31
2017-07-03T08:10:03.559Z,10.22
2017-07-03T08:11:03.608Z,10.22
2017-07-03T08:12:04.058Z,9.93
2017-07-03T08:13:03.726Z,9.73
2017-07-03T08:14:03.782Z,9.53
2017-07-03T08:15:03.842Z,9.43
2017-07-03T08:16:03.897Z,9.73
2017-07-03T08:17:03.957Z,9.73
2017-07-03T08:18:04.008Z,9.33
2017-07-03T08:19:04.070Z,9.33
2017-07-03T08:20:04.555Z,9.33
2017-07-03T08:21:04.498Z,9.52
2017-07-03T08:22:04.243Z,9.92
2017-07-03T08:23:04.297Z,10.02
2017-07-03T08:24:04.353Z,9.92
2017-07-03T08:25:04.416Z,10.42
2017-07-03T08:26:04.467Z,10.52
2017-07-03T08:27:04.530Z,10.42
2017-07-03T08:28:04.585Z,10.22
2017-07-03T08:29:04.643Z,9.93
2017-07-03T08:30:04.696Z,9.74
2017-07-03T08:31:04.758Z,9.74
2017-07-03T08:32:04.818Z,9.83
2017-07-03T08:33:05.187Z,9.84
2017-07-03T08:34:04.931Z,9.84
2017-07-03T08:35:04.988Z,9.54
2017-07-03T08:36:05.043Z,9.83
2017-07-03T08:37:05.102Z,10.03
2017-07-03T08:38:05.168Z,9.63
2017-07-03T08:39:05.222Z,9.73
2017-07-03T08:40:05.275Z,9.63
2017-07-03T08:41:05.335Z,9.74
2017-07-03T08:42:05.389Z,9.53
2017-07-03T08:43:05.456Z,9.93
2017-07-03T08:44:05.512Z,9.43
2017-07-03T08:45:05.573Z,10.02
2017-07-03T08:46:05.627Z,10.02
2017-07-03T08:47:05.683Z,10.22
2017-07-03T08:48:05.740Z,10.31
2017-07-03T08:49:05.794Z,10.21
2017-07-03T08:50:05.853Z,10.5
2017-07-03T08:51:05.914Z,10.8
2017-07-03T08:52:05.972Z,11
2017-07-03T08:53:06.023Z,10.79
2017-07-03T08:54:06.084Z,10.69
2017-07-03T08:55:06.144Z,10.89
2017-07-03T08:56:06.192Z,11.08
2017-07-03T08:57:06.254Z,10.99
2017-07-03T08:58:06.311Z,11.09
2017-07-03T08:59:06.366Z,11.29
2017-07-03T09:00:06.431Z,11
2017-07-03T09:01:06.481Z,10.89
2017-07-03T09:02:06.541Z,10.6
2017-07-03T09:03:06.647Z,10.8
2017-07-03T09:04:06.655Z,11.39
2017-07-03T09:05:06.984Z,10.8
2017-07-03T09:06:06.772Z,11.4
2017-07-03T09:07:07.136Z,11.2
2017-07-03T09:08:06.887Z,11.2
2017-07-03T09:09:08.500Z,10.8
2017-07-03T09:10:07.312Z,10.99
2017-07-03T09:11:07.058Z,11.48
2017-07-03T09:12:07.115Z,11.77
2017-07-03T09:13:07.173Z,11.47
2017-07-03T09:14:07.538Z,11.47
2017-07-03T09:15:07.288Z,11.67
2017-07-03T09:16:07.652Z,12.17
2017-07-03T09:17:07.405Z,12.17
2017-07-03T09:18:07.461Z,11.88
2017-07-03T09:19:08.922Z,11.68
2017-07-03T09:20:07.584Z,11.68
2017-07-03T09:21:07.637Z,11.49
2017-07-03T09:22:07.692Z,11.68
2017-07-03T09:23:09.092Z,11.49
2017-07-03T09:24:08.118Z,11.39
2017-07-03T09:25:09.130Z,11.29
2017-07-03T09:26:07.931Z,11.19
2017-07-03T09:27:07.989Z,11.19
2017-07-03T09:28:09.342Z,11.78
2017-07-03T09:29:08.107Z,11.68
2017-07-03T09:30:09.269Z,11.99
2017-07-03T09:31:09.615Z,11.69
2017-07-03T09:32:08.283Z,11.89
2017-07-03T09:33:08.344Z,12.18
2017-07-03T09:34:08.402Z,11.39
2017-07-03T09:35:08.460Z,11.58
2017-07-03T09:36:09.925Z,11.78
2017-07-03T09:37:08.577Z,11.77
2017-07-03T09:38:09.909Z,11.77
2017-07-03T09:39:08.700Z,11.57
2017-07-03T09:40:08.752Z,11.46
2017-07-03T09:41:08.812Z,11.85
2017-07-03T09:42:08.867Z,12.33
2017-07-03T09:43:08.927Z,12.22
2017-07-03T09:44:08.986Z,12.7
2017-07-03T09:45:09.040Z,13.28
2017-07-03T09:46:09.091Z,13.86
2017-07-03T09:47:09.156Z,14.05
2017-07-03T09:48:09.213Z,14.74
2017-07-03T09:49:09.268Z,14.74
2017-07-03T09:50:09.318Z,15.03
2017-07-03T09:51:09.379Z,14.74
2017-07-03T09:52:09.432Z,15.04
2017-07-03T09:53:09.495Z,14.84
2017-07-03T09:54:09.546Z,14.94
2017-07-03T09:55:09.604Z,15.23
2017-07-03T09:56:09.967Z,14.84
2017-07-03T09:57:10.031Z,14.83
2017-07-03T09:58:10.082Z,15.51
2017-07-03T09:59:09.824Z,16.18
2017-07-03T10:00:09.879Z,16.47
2017-07-03T10:01:09.929Z,16.66
2017-07-03T10:02:09.984Z,16.75
2017-07-03T10:03:10.054Z,17.22
2017-07-03T10:04:10.407Z,17.41
2017-07-03T10:05:10.147Z,17.99
2017-07-03T10:06:10.204Z,17.99
2017-07-03T10:07:10.255Z,18.19
2017-07-03T10:08:10.621Z,18.48
2017-07-03T10:09:10.378Z,18.68
2017-07-03T10:10:10.722Z,18.68
2017-07-03T10:11:10.468Z,18.48
2017-07-03T10:12:10.527Z,18.57
2017-07-03T10:13:10.580Z,19.26
2017-07-03T10:14:10.633Z,19.35
2017-07-03T10:15:10.997Z,19.64
2017-07-03T10:16:10.736Z,19.83
2017-07-03T10:17:10.836Z,19.83
2017-07-03T10:18:10.841Z,20.12
2017-07-03T10:19:10.893Z,20.21
2017-07-03T10:20:10.949Z,20.2
2017-07-03T10:21:10.999Z,20.61
2017-07-03T10:22:11.050Z,20.7
2017-07-03T10:23:11.106Z,20.61
2017-07-03T10:24:11.161Z,21.19
2017-07-03T10:25:11.213Z,20.81
2017-07-03T10:26:11.269Z,21.69
2017-07-03T10:27:11.317Z,21.1
2017-07-03T10:28:11.377Z,20.9
2017-07-03T10:29:11.430Z,20.61
2017-07-03T10:30:11.487Z,20.7
2017-07-03T10:31:11.542Z,20.51
2017-07-03T10:32:11.603Z,20.51
2017-07-03T10:33:11.653Z,20.69
2017-07-03T10:34:11.706Z,20.59
2017-07-03T10:35:11.759Z,21.26
2017-07-03T10:36:11.815Z,21.66
2017-07-03T10:37:11.874Z,21.66
2017-07-03T10:38:11.931Z,21.75
2017-07-03T10:39:12.294Z,21.85
2017-07-03T10:40:12.053Z,21.85
2017-07-03T10:41:12.095Z,22.05
2017-07-03T10:42:12.157Z,21.66
2017-07-03T10:43:12.210Z,21.55
2017-07-03T10:44:12.278Z,21.84
2017-07-03T10:45:12.326Z,21.94
2017-07-03T10:46:12.378Z,21.84
2017-07-03T10:47:12.437Z,21.84
2017-07-03T10:48:12.502Z,22.13
2017-07-03T10:49:12.549Z,21.64
2017-07-03T10:50:12.605Z,21.74
2017-07-03T10:51:12.664Z,22.03
2017-07-03T10:52:12.719Z,21.83
2017-07-03T10:53:12.791Z,22.41
2017-07-03T10:54:12.832Z,22.8
2017-07-03T10:55:12.885Z,22.51
2017-07-03T10:56:12.941Z,22.9
2017-07-03T10:57:12.998Z,22.79
2017-07-03T10:58:13.049Z,22.5
2017-07-03T10:59:13.102Z,22.88
2017-07-03T11:00:13.161Z,23.36
2017-07-03T11:01:13.216Z,23.46
2017-07-03T11:02:13.262Z,23.65
2017-07-03T11:03:13.322Z,23.66
2017-07-03T11:04:13.370Z,23.95
2017-07-03T11:05:13.428Z,24.24
2017-07-03T11:06:13.484Z,24.24
2017-07-03T11:07:13.545Z,24.13
2017-07-03T11:08:13.585Z,24.13
2017-07-03T11:09:13.638Z,24.62
2017-07-03T11:10:13.690Z,24.41
2017-07-03T11:11:13.742Z,24.71
2017-07-03T11:12:13.795Z,24.71
2017-07-03T11:13:13.846Z,24.8
2017-07-03T11:14:13.898Z,25.08
2017-07-03T11:15:13.951Z,24.89
2017-07-03T11:16:14.003Z,25.08
2017-07-03T11:17:14.045Z,25.37
2017-07-03T11:18:14.102Z,25.37
2017-07-03T11:19:14.149Z,25.27
2017-07-03T11:20:14.195Z,25.46
2017-07-03T11:21:14.244Z,25.46
2017-07-03T11:22:14.296Z,25.65
2017-07-03T11:23:14.347Z,25.54
2017-07-03T11:24:14.395Z,26.03
2017-07-03T11:25:14.445Z,26.51
2017-07-03T11:26:14.488Z,26.51
2017-07-03T11:27:14.536Z,26.42
2017-07-03T11:28:14.581Z,26.9
2017-07-03T11:29:14.631Z,27.29
2017-07-03T11:30:14.687Z,27.21
2017-07-03T11:31:14.737Z,27
2017-07-03T11:32:14.774Z,26.9
2017-07-03T11:33:14.819Z,27.11
2017-07-03T11:34:14.870Z,27.5
2017-07-03T11:35:14.914Z,27.29
2017-07-03T11:36:14.958Z,27.48
2017-07-03T11:37:15.017Z,27.58
2017-07-03T11:38:15.051Z,27.48
2017-07-03T11:39:15.097Z,27.48
2017-07-03T11:40:15.152Z,27.48
2017-07-03T11:41:15.194Z,27.29
2017-07-03T11:42:15.239Z,28.15
2017-07-03T11:43:15.290Z,28.36
2017-07-03T11:44:15.336Z,28.36
2017-07-03T11:45:15.383Z,28.36
2017-07-03T11:46:15.422Z,28.26
2017-07-03T11:47:15.472Z,28.26
2017-07-03T11:48:15.521Z,28.17
2017-07-03T11:49:15.561Z,27.97
2017-07-03T11:50:15.615Z,28.07
2017-07-03T11:51:15.657Z,27.86
2017-07-03T11:52:15.705Z,28.25
2017-07-03T11:53:15.747Z,28.44
2017-07-03T11:54:15.794Z,28.45
2017-07-03T11:55:15.837Z,28.85
2017-07-03T11:56:15.883Z,28.75
2017-07-03T11:57:15.934Z,28.65
2017-07-03T11:58:15.976Z,29.24
2017-07-03T11:59:16.029Z,29.02
2017-07-03T12:00:16.069Z,29.32
2017-07-03T12:01:16.115Z,29.51
2017-07-03T12:02:16.165Z,29.69
2017-07-03T12:03:16.208Z,30.19
2017-07-03T12:04:16.256Z,30.48
2017-07-03T12:05:16.300Z,30.58
2017-07-03T12:06:16.346Z,30.38
2017-07-03T12:07:16.390Z,30.09
2017-07-03T12:08:16.438Z,30
2017-07-03T12:09:16.483Z,30.29
2017-07-03T12:10:16.524Z,30.29
2017-07-03T12:11:16.569Z,30.09
2017-07-03T12:12:16.627Z,30.09
2017-07-03T12:13:16.660Z,30.19
2017-07-03T12:14:16.713Z,29.9
2017-07-03T12:15:16.754Z,29.51
2017-07-03T12:16:16.804Z,29.71
2017-07-03T12:17:16.846Z,29.9
2017-07-03T12:18:16.896Z,29.71
2017-07-03T12:19:16.938Z,29.69
2017-07-03T12:20:16.981Z,29.6
2017-07-03T12:21:17.035Z,29.98
2017-07-03T12:22:17.074Z,30.08
2017-07-03T12:23:17.117Z,30.57
2017-07-03T12:24:17.169Z,30.08
2017-07-03T12:25:17.207Z,30.47
2017-07-03T12:26:17.256Z,30.37
2017-07-03T12:27:17.305Z,30.66
2017-07-03T12:28:17.345Z,30.74
2017-07-03T12:29:17.393Z,30.55
2017-07-03T12:30:17.435Z,30.65
2017-07-03T12:31:17.483Z,30.84
2017-07-03T12:32:17.521Z,30.84
2017-07-03T12:33:17.574Z,30.94
2017-07-03T12:34:17.617Z,31.15
2017-07-03T12:35:17.714Z,31.24
2017-07-03T12:36:17.709Z,31.42
2017-07-03T12:37:17.751Z,31.44
2017-07-03T12:38:17.799Z,31.81
2017-07-03T12:39:17.838Z,31.63
2017-07-03T12:40:17.891Z,31.92
2017-07-03T12:41:17.929Z,31.63
2017-07-03T12:42:17.981Z,31.73
2017-07-03T12:43:18.025Z,31.63
2017-07-03T12:44:18.070Z,31.73
2017-07-03T12:45:18.108Z,31.92
2017-07-03T12:46:18.162Z,31.82
2017-07-03T12:47:18.201Z,31.82
2017-07-03T12:48:18.252Z,31.82
2017-07-03T12:49:18.295Z,31.92
2017-07-03T12:50:18.337Z,31.91
2017-07-03T12:51:18.383Z,31.82
2017-07-03T12:52:18.426Z,31.81
2017-07-03T12:53:18.473Z,32.02
2017-07-03T12:54:18.517Z,31.73
2017-07-03T12:55:18.558Z,31.81
2017-07-03T12:56:18.609Z,31.82
2017-07-03T12:57:18.652Z,32.02
2017-07-03T12:58:18.708Z,32
2017-07-03T12:59:18.744Z,31.91